createdAt,value
2023-11-14T00:00:38.564Z,93.73
2023-11-14T00:03:06.834Z,93.53
2023-11-14T00:05:37.967Z,93.43
2023-11-14T00:08:05.260Z,93.56
2023-11-14T00:10:31.778Z,93.43
2023-11-14T00:12:58.365Z,93.74
2023-11-14T00:15:27.564Z,93.82
2023-11-14T00:17:54.335Z,94.13
2023-11-14T00:20:20.920Z,94.24
2023-11-14T00:22:47.465Z,93.98
2023-11-14T00:25:13.952Z,94.06
2023-11-14T00:27:41.069Z,93.91
2023-11-14T00:30:08.700Z,93.85
2023-11-14T00:32:35.191Z,93.62
2023-11-14T00:35:01.873Z,93.44
2023-11-14T00:37:29.851Z,93.51
2023-11-14T00:39:56.420Z,93.67
2023-11-14T00:42:22.947Z,93.62
2023-11-14T00:44:50.109Z,93.83
2023-11-14T00:47:16.665Z,93.71
2023-11-14T00:49:43.147Z,93.89
2023-11-14T00:52:09.576Z,94.35
2023-11-14T00:54:35.999Z,94.14
2023-11-14T00:57:02.429Z,93.90
2023-11-14T00:59:29.487Z,93.92
2023-11-14T01:01:59.574Z,93.78
2023-11-14T01:04:27.038Z,94.04
2023-11-14T01:06:53.422Z,94.07
2023-11-14T01:09:19.965Z,94.19
2023-11-14T01:11:47.873Z,93.43
2023-11-14T01:14:14.361Z,93.69
2023-11-14T01:16:40.792Z,92.91
2023-11-14T01:19:07.261Z,93.34
2023-11-14T01:21:33.692Z,92.95
2023-11-14T01:24:00.115Z,93.05
2023-11-14T01:26:33.155Z,93.00
2023-11-14T01:28:59.674Z,93.21
2023-11-14T01:31:26.116Z,93.25
2023-11-14T01:33:52.578Z,93.03
2023-11-14T01:36:18.997Z,92.91
2023-11-14T01:38:45.899Z,92.80
2023-11-14T01:41:13.330Z,93.14
2023-11-14T01:43:46.870Z,92.98
2023-11-14T01:46:17.039Z,92.89
2023-11-14T01:48:47.516Z,93.16
2023-11-14T01:51:14.946Z,93.18
2023-11-14T01:53:41.784Z,93.18
2023-11-14T01:56:10.963Z,93.27
2023-11-14T01:58:37.772Z,93.65
2023-11-14T02:01:04.970Z,93.73
2023-11-14T02:03:34.026Z,94.21
2023-11-14T02:06:00.643Z,93.96
2023-11-14T02:08:27.236Z,94.11
2023-11-14T02:10:53.662Z,94.21
2023-11-14T02:13:20.175Z,94.40
2023-11-14T02:15:46.655Z,94.02
2023-11-14T02:18:17.533Z,93.81
2023-11-14T02:20:44.054Z,93.83
2023-11-14T02:23:12.300Z,93.88
2023-11-14T02:25:38.802Z,93.63
2023-11-14T02:28:05.181Z,93.83
2023-11-14T02:30:32.175Z,93.77
2023-11-14T02:32:58.648Z,93.96
2023-11-14T02:35:25.259Z,93.52
2023-11-14T02:37:51.900Z,93.43
2023-11-14T02:40:18.488Z,93.59
2023-11-14T02:42:45.155Z,93.52
2023-11-14T02:45:12.060Z,93.31
2023-11-14T02:47:39.027Z,93.66
2023-11-14T02:50:19.354Z,93.32
2023-11-14T02:52:45.910Z,93.53
2023-11-14T02:55:12.301Z,93.26
2023-11-14T02:57:38.688Z,93.07
2023-11-14T03:00:05.922Z,92.91
2023-11-14T03:02:32.345Z,93.21
2023-11-14T03:04:58.914Z,92.93
2023-11-14T03:07:25.350Z,93.28
2023-11-14T03:09:51.751Z,92.95
2023-11-14T03:12:18.398Z,93.13
2023-11-14T03:14:44.950Z,92.74
2023-11-14T03:17:11.587Z,93.20
2023-11-14T03:19:44.259Z,93.12
2023-11-14T03:22:11.962Z,93.30
2023-11-14T03:24:40.248Z,93.50
2023-11-14T03:27:07.014Z,93.73
2023-11-14T03:29:33.477Z,94.50
2023-11-14T03:32:00.475Z,94.86
2023-11-14T03:34:27.208Z,94.98
2023-11-14T03:36:54.383Z,95.51
2023-11-14T03:39:21.585Z,96.02
2023-11-14T03:41:48.060Z,96.47
2023-11-14T03:44:14.441Z,96.18
2023-11-14T03:46:42.977Z,96.18
2023-11-14T03:49:09.441Z,96.33
2023-11-14T03:51:35.866Z,97.02
2023-11-14T03:54:02.266Z,96.94
2023-11-14T03:56:28.734Z,96.88
2023-11-14T03:58:55.367Z,97.05
2023-11-14T04:01:22.178Z,96.53
2023-11-14T04:03:49.262Z,96.48
2023-11-14T04:06:15.727Z,96.24
2023-11-14T04:08:42.233Z,96.55
2023-11-14T04:11:08.817Z,96.27
2023-11-14T04:13:37.960Z,95.77
2023-11-14T04:16:06.733Z,95.37
2023-11-14T04:18:34.661Z,94.82
2023-11-14T04:21:01.184Z,94.66
2023-11-14T04:23:27.543Z,94.54
2023-11-14T04:25:54.044Z,94.57
2023-11-14T04:28:20.576Z,94.68
2023-11-14T04:30:46.968Z,94.84
2023-11-14T04:33:13.387Z,94.40
2023-11-14T04:35:39.859Z,94.07
2023-11-14T04:38:06.233Z,93.88
2023-11-14T04:40:32.686Z,93.93
2023-11-14T04:42:59.131Z,93.40
2023-11-14T04:45:26.930Z,93.34
2023-11-14T04:47:53.343Z,93.35
2023-11-14T04:50:21.554Z,93.41
2023-11-14T04:52:48.212Z,93.26
2023-11-14T04:55:14.748Z,93.26
2023-11-14T04:57:41.135Z,93.24
2023-11-14T05:00:09.951Z,93.19
2023-11-14T05:02:36.661Z,93.25
2023-11-14T05:05:03.333Z,93.18
2023-11-14T05:07:29.766Z,93.09
2023-11-14T05:09:56.247Z,93.35
2023-11-14T05:12:22.653Z,93.15
2023-11-14T05:14:49.051Z,93.41
2023-11-14T05:17:15.532Z,92.93
2023-11-14T05:19:45.415Z,93.13
2023-11-14T05:22:13.650Z,93.11
2023-11-14T05:24:40.817Z,93.27
2023-11-14T05:27:07.238Z,93.70
2023-11-14T05:29:36.924Z,93.58
2023-11-14T05:32:04.365Z,93.58
2023-11-14T05:34:30.844Z,93.64
2023-11-14T05:36:57.290Z,93.21
2023-11-14T05:39:23.849Z,93.39
2023-11-14T05:41:50.250Z,93.64
2023-11-14T05:44:16.939Z,93.84
2023-11-14T05:46:44.873Z,93.71
2023-11-14T05:49:12.569Z,93.71
2023-11-14T05:51:39.622Z,93.63
2023-11-14T05:54:06.619Z,93.56
2023-11-14T05:56:33.026Z,93.83
2023-11-14T05:58:59.428Z,93.80
2023-11-14T06:01:25.983Z,93.81
2023-11-14T06:03:52.466Z,93.80
2023-11-14T06:06:18.937Z,94.08
2023-11-14T06:08:45.378Z,94.34
2023-11-14T06:11:14.229Z,94.06
2023-11-14T06:13:45.401Z,94.13
2023-11-14T06:16:12.353Z,94.41
2023-11-14T06:18:38.824Z,94.58
2023-11-14T06:21:05.438Z,94.71
2023-11-14T06:23:32.202Z,94.59
2023-11-14T06:25:59.409Z,94.77
2023-11-14T06:28:25.902Z,95.02
2023-11-14T06:30:52.281Z,95.02
2023-11-14T06:33:18.669Z,95.40
2023-11-14T06:35:46.347Z,95.48
2023-11-14T06:38:12.796Z,95.20
2023-11-14T06:40:40.428Z,95.26
2023-11-14T06:43:08.088Z,94.96
2023-11-14T06:45:34.501Z,95.11
2023-11-14T06:48:01.032Z,95.36
2023-11-14T06:50:37.437Z,95.51
2023-11-14T06:53:10.228Z,95.26
2023-11-14T06:55:36.728Z,95.40
2023-11-14T06:58:03.098Z,95.55
2023-11-14T07:00:32.093Z,95.86
2023-11-14T07:02:59.131Z,96.11
2023-11-14T07:05:26.162Z,96.17
2023-11-14T07:07:53.920Z,96.09
2023-11-14T07:10:21.078Z,96.20
2023-11-14T07:12:47.558Z,96.84
2023-11-14T07:15:13.969Z,97.14
2023-11-14T07:17:41.015Z,97.98
2023-11-14T07:20:11.598Z,98.33
2023-11-14T07:22:41.739Z,98.65
2023-11-14T07:25:10.605Z,98.57
2023-11-14T07:27:42.318Z,98.76
2023-11-14T07:30:10.633Z,99.13
2023-11-14T07:32:37.311Z,99.58
2023-11-14T07:35:04.141Z,99.30
2023-11-14T07:37:30.735Z,99.23
2023-11-14T07:39:57.816Z,98.99
2023-11-14T07:42:27.250Z,99.11
2023-11-14T07:44:53.741Z,99.32
2023-11-14T07:47:21.504Z,99.17
2023-11-14T07:49:48.701Z,99.23
2023-11-14T07:52:15.151Z,99.48
2023-11-14T07:54:41.772Z,99.85
2023-11-14T07:57:08.162Z,99.77
2023-11-14T07:59:35.083Z,99.68
2023-11-14T08:02:01.628Z,99.44
2023-11-14T08:04:28.927Z,99.39
2023-11-14T08:06:55.364Z,99.60
2023-11-14T08:09:21.770Z,99.24
2023-11-14T08:11:48.670Z,99.12
2023-11-14T08:14:16.267Z,99.14
2023-11-14T08:16:42.859Z,99.40
2023-11-14T08:19:09.383Z,99.38
2023-11-14T08:21:35.829Z,99.40
2023-11-14T08:24:02.353Z,99.75
2023-11-14T08:26:28.892Z,99.43
2023-11-14T08:28:55.556Z,99.71
2023-11-14T08:31:22.066Z,99.94
2023-11-14T08:33:48.500Z,100.00
2023-11-14T08:36:15.921Z,100.00
2023-11-14T08:38:42.462Z,100.00
2023-11-14T08:41:09.178Z,100.00
2023-11-14T08:43:35.984Z,100.00
2023-11-14T08:46:02.634Z,100.00
2023-11-14T08:48:29.111Z,100.00
2023-11-14T08:50:55.585Z,100.00
2023-11-14T08:53:22.555Z,100.00
2023-11-14T08:55:49.263Z,100.00
2023-11-14T08:58:15.665Z,100.00
2023-11-14T09:00:42.072Z,100.00
2023-11-14T09:03:08.683Z,100.00
2023-11-14T09:05:35.662Z,100.00
2023-11-14T09:08:02.165Z,100.00
2023-11-14T09:10:28.728Z,100.00
2023-11-14T09:12:55.228Z,100.00
2023-11-14T09:15:21.712Z,100.00
2023-11-14T09:17:52.392Z,100.00
2023-11-14T09:20:21.827Z,100.00
2023-11-14T09:22:48.367Z,100.00
2023-11-14T09:25:15.457Z,100.00
2023-11-14T09:27:42.490Z,100.00
2023-11-14T09:30:10.068Z,100.00
2023-11-14T09:32:36.826Z,100.00
2023-11-14T09:35:03.824Z,99.28
2023-11-14T09:37:30.303Z,99.03
2023-11-14T09:39:56.813Z,98.82
2023-11-14T09:42:23.987Z,98.53
2023-11-14T09:44:50.965Z,98.52
2023-11-14T09:47:18.381Z,99.14
2023-11-14T09:49:45.050Z,99.22
2023-11-14T09:52:12.980Z,99.14
2023-11-14T09:54:43.836Z,98.52
2023-11-14T09:57:12.062Z,97.36
2023-11-14T09:59:42.800Z,96.79
2023-11-14T10:02:09.351Z,97.39
2023-11-14T10:04:35.886Z,97.02
2023-11-14T10:07:02.564Z,96.71
2023-11-14T10:09:29.132Z,96.68
2023-11-14T10:12:16.804Z,95.86
2023-11-14T10:14:47.119Z,95.99
2023-11-14T10:17:15.089Z,96.28
2023-11-14T10:20:02.285Z,96.46
2023-11-14T10:22:29.055Z,96.15
2023-11-14T10:24:55.852Z,95.90
2023-11-14T10:27:37.821Z,96.13
2023-11-14T10:30:04.846Z,95.80
2023-11-14T10:32:31.843Z,95.98
2023-11-14T10:35:16.465Z,95.79
2023-11-14T10:37:42.864Z,96.00
2023-11-14T10:40:09.986Z,96.02
2023-11-14T10:42:36.857Z,96.24
2023-11-14T10:45:11.550Z,96.18
2023-11-14T10:47:42.780Z,95.82
2023-11-14T10:50:30.061Z,96.37
2023-11-14T10:52:57.591Z,96.37
2023-11-14T10:55:25.619Z,95.24
2023-11-14T10:57:53.200Z,95.53
2023-11-14T11:00:22.298Z,94.67
2023-11-14T11:02:54.059Z,95.15
2023-11-14T11:05:28.096Z,94.64
2023-11-14T11:07:59.972Z,94.62
2023-11-14T11:10:31.947Z,93.95
2023-11-14T11:13:00.523Z,93.71
2023-11-14T11:15:28.165Z,93.65
2023-11-14T11:18:01.711Z,93.59
2023-11-14T11:20:31.279Z,93.89
2023-11-14T11:23:11.844Z,93.82
2023-11-14T11:25:45.799Z,94.14
2023-11-14T11:28:35.013Z,93.99
2023-11-14T11:31:12.674Z,94.17
2023-11-14T11:33:42.811Z,94.23
2023-11-14T11:36:21.594Z,93.89
2023-11-14T11:39:04.088Z,94.48
2023-11-14T11:41:39.720Z,94.05
2023-11-14T11:44:13.570Z,94.08
2023-11-14T11:46:47.962Z,94.16
2023-11-14T11:49:14.434Z,94.08
2023-11-14T11:51:44.887Z,93.73
2023-11-14T11:54:29.891Z,93.89
2023-11-14T11:57:11.804Z,94.02
2023-11-14T11:59:41.572Z,94.68
2023-11-14T12:02:11.931Z,94.36
2023-11-14T12:04:39.718Z,94.41
2023-11-14T12:07:07.063Z,94.43
2023-11-14T12:09:33.542Z,93.59
2023-11-14T12:11:59.928Z,93.94
2023-11-14T12:14:30.131Z,93.85
2023-11-14T12:17:01.063Z,94.02
2023-11-14T12:19:27.799Z,93.83
2023-11-14T12:21:55.463Z,94.39
2023-11-14T12:24:23.398Z,94.09
2023-11-14T12:26:50.270Z,93.99
2023-11-14T12:29:18.936Z,94.08
2023-11-14T12:31:51.907Z,94.03
2023-11-14T12:34:30.634Z,93.93
2023-11-14T12:37:11.586Z,93.65
2023-11-14T12:39:38.049Z,93.78
2023-11-14T12:42:07.805Z,93.30
2023-11-14T12:44:34.856Z,93.32
2023-11-14T12:47:01.500Z,92.98
2023-11-14T12:49:32.688Z,92.95
2023-11-14T12:52:02.361Z,93.02
2023-11-14T12:54:29.003Z,92.96
2023-11-14T12:56:56.219Z,93.12
2023-11-14T12:59:23.123Z,93.08
2023-11-14T13:01:50.589Z,93.27
2023-11-14T13:04:17.958Z,94.02
2023-11-14T13:06:47.395Z,94.37
2023-11-14T13:09:16.958Z,94.65
2023-11-14T13:11:44.274Z,94.84
2023-11-14T13:14:12.048Z,95.41
2023-11-14T13:16:39.796Z,95.35
2023-11-14T13:19:06.765Z,96.16
2023-11-14T13:21:33.273Z,96.07
2023-11-14T13:23:59.846Z,96.20
2023-11-14T13:26:26.280Z,96.45
2023-11-14T13:28:52.923Z,96.41
2023-11-14T13:31:20.197Z,96.49
2023-11-14T13:33:47.421Z,96.72
2023-11-14T13:36:17.490Z,97.09
2023-11-14T13:38:45.951Z,97.28
2023-11-14T13:43:42.519Z,97.59
2023-11-14T13:46:17.863Z,98.54
2023-11-14T13:48:50.622Z,98.88
2023-11-14T13:51:19.184Z,98.51
2023-11-14T13:53:45.708Z,98.53
2023-11-14T13:56:12.598Z,99.02
2023-11-14T13:58:39.058Z,98.90
2023-11-14T14:01:12.672Z,99.05
2023-11-14T14:03:39.935Z,99.49
2023-11-14T14:06:08.526Z,99.59
2023-11-14T14:08:38.563Z,99.58
2023-11-14T14:11:09.018Z,99.85
2023-11-14T14:13:36.248Z,99.99
2023-11-14T14:16:08.795Z,100.00
2023-11-14T14:18:35.334Z,100.00
2023-11-14T14:21:05.238Z,100.00
2023-11-14T14:23:32.424Z,100.00
2023-11-14T14:26:00.269Z,100.00
2023-11-14T14:28:36.098Z,100.00
2023-11-14T14:31:06.713Z,100.00
2023-11-14T14:33:33.784Z,100.00
2023-11-14T14:36:00.428Z,100.00
2023-11-14T14:38:27.044Z,100.00
2023-11-14T14:40:53.599Z,100.00
2023-11-14T14:43:20.276Z,100.00
2023-11-14T14:45:47.544Z,100.00
2023-11-14T14:48:14.478Z,100.00
2023-11-14T14:50:41.416Z,100.00
2023-11-14T14:53:08.111Z,100.00
2023-11-14T14:55:34.713Z,100.00
2023-11-14T14:58:05.027Z,100.00
2023-11-14T15:00:32.761Z,100.00
2023-11-14T15:03:00.117Z,100.00
2023-11-14T15:05:29.093Z,100.00
2023-11-14T15:07:55.552Z,100.00
2023-11-14T15:10:22.777Z,100.00
2023-11-14T15:12:49.205Z,100.00
2023-11-14T15:15:15.873Z,100.00
2023-11-14T15:17:42.469Z,100.00
2023-11-14T15:20:11.969Z,100.00
2023-11-14T15:22:38.515Z,100.00
2023-11-14T15:25:08.568Z,100.00
2023-11-14T15:27:35.035Z,100.00
2023-11-14T15:30:03.970Z,100.00
2023-11-14T15:32:31.729Z,100.00
2023-11-14T15:34:59.134Z,100.00
2023-11-14T15:37:25.633Z,100.00
2023-11-14T15:39:52.241Z,100.00
2023-11-14T15:42:18.739Z,100.00
2023-11-14T15:44:47.414Z,100.00
2023-11-14T15:47:14.580Z,100.00
2023-11-14T15:49:41.408Z,100.00
2023-11-14T15:52:08.400Z,100.00
2023-11-14T15:54:34.983Z,100.00
2023-11-14T15:57:02.266Z,100.00
2023-11-14T15:59:28.879Z,100.00
2023-11-14T16:01:55.501Z,100.00
2023-11-14T16:04:22.040Z,100.00
2023-11-14T16:06:48.457Z,100.00
2023-11-14T16:09:14.886Z,100.00
2023-11-14T16:11:41.268Z,100.00
2023-11-14T16:14:08.295Z,100.00
2023-11-14T16:16:34.752Z,100.00
2023-11-14T16:19:01.166Z,100.00
2023-11-14T16:21:27.623Z,100.00
2023-11-14T16:23:56.368Z,100.00
2023-11-14T16:26:23.385Z,100.00
2023-11-14T16:28:49.805Z,100.00
2023-11-14T16:31:16.672Z,100.00
2023-11-14T16:33:43.646Z,100.00
2023-11-14T16:36:10.022Z,100.00
2023-11-14T16:38:36.492Z,100.00
2023-11-14T16:41:03.009Z,100.00
2023-11-14T16:43:30.413Z,100.00
2023-11-14T16:45:56.967Z,100.00
2023-11-14T16:48:23.476Z,100.00
2023-11-14T16:50:49.872Z,100.00
2023-11-14T16:53:16.520Z,100.00
2023-11-14T16:55:42.947Z,100.00
2023-11-14T16:58:10.066Z,100.00
2023-11-14T17:00:36.528Z,100.00
2023-11-14T17:03:03.049Z,100.00
2023-11-14T17:05:29.813Z,100.00
2023-11-14T17:07:57.725Z,100.00
2023-11-14T17:10:25.673Z,100.00
2023-11-14T17:12:53.305Z,100.00
2023-11-14T17:15:19.730Z,100.00
2023-11-14T17:17:46.461Z,100.00
2023-11-14T17:20:13.034Z,100.00
2023-11-14T17:22:39.626Z,100.00
2023-11-14T17:25:06.693Z,100.00
2023-11-14T17:27:33.106Z,100.00
2023-11-14T17:29:59.594Z,100.00
2023-11-14T17:32:27.411Z,100.00
2023-11-14T17:34:54.851Z,100.00
2023-11-14T17:37:22.216Z,100.00
2023-11-14T17:39:48.628Z,100.00
2023-11-14T17:42:15.047Z,100.00
2023-11-14T17:44:41.567Z,100.00
2023-11-14T17:47:10.866Z,100.00
2023-11-14T17:49:40.632Z,100.00
2023-11-14T17:52:07.245Z,100.00
2023-11-14T17:54:34.337Z,100.00
2023-11-14T17:57:00.996Z,100.00
2023-11-14T17:59:27.510Z,100.00
2023-11-14T18:01:54.197Z,100.00
2023-11-14T18:04:20.862Z,100.00
2023-11-14T18:06:48.981Z,100.00
2023-11-14T18:09:16.141Z,100.00
2023-11-14T18:11:42.541Z,100.00
2023-11-14T18:14:09.112Z,100.00
2023-11-14T18:16:35.996Z,100.00
2023-11-14T18:19:02.578Z,100.00
2023-11-14T18:21:29.030Z,100.00
2023-11-14T18:23:55.443Z,100.00
2023-11-14T18:26:24.821Z,100.00
2023-11-14T18:28:51.356Z,100.00
2023-11-14T18:31:17.892Z,100.00
2023-11-14T18:33:44.613Z,100.00
2023-11-14T18:36:11.256Z,100.00
2023-11-14T18:38:40.241Z,100.00
2023-11-14T18:41:06.868Z,100.00
2023-11-14T18:43:33.350Z,100.00
2023-11-14T18:46:00.478Z,100.00
2023-11-14T18:48:26.941Z,100.00
2023-11-14T18:50:53.890Z,100.00
2023-11-14T18:53:22.001Z,100.00
2023-11-14T18:55:49.071Z,100.00
2023-11-14T18:58:18.750Z,100.00
2023-11-14T19:00:46.038Z,100.00
2023-11-14T19:03:12.742Z,100.00
2023-11-14T19:05:39.400Z,100.00
2023-11-14T19:08:05.888Z,100.00
2023-11-14T19:10:32.315Z,100.00
2023-11-14T19:12:58.729Z,100.00
2023-11-14T19:15:25.214Z,100.00
2023-11-14T19:17:52.275Z,100.00
2023-11-14T19:20:18.852Z,100.00
2023-11-14T19:23:36.158Z,100.00
2023-11-14T19:25:31.942Z,100.00
2023-11-14T19:27:58.384Z,100.00
2023-11-14T19:30:24.859Z,100.00
2023-11-14T19:32:51.351Z,100.00
2023-11-14T19:35:17.950Z,100.00
2023-11-14T19:37:44.429Z,100.00
2023-11-14T19:40:12.545Z,100.00
2023-11-14T19:42:39.808Z,100.00
2023-11-14T19:45:06.551Z,100.00
2023-11-14T19:47:33.993Z,100.00
2023-11-14T19:50:01.464Z,100.00
2023-11-14T19:52:28.519Z,100.00
2023-11-14T19:54:55.032Z,100.00
2023-11-14T19:57:23.587Z,100.00
2023-11-14T19:59:50.048Z,100.00
2023-11-14T20:02:16.570Z,100.00
2023-11-14T20:04:44.537Z,100.00
2023-11-14T20:07:11.005Z,100.00
2023-11-14T20:09:37.435Z,100.00
2023-11-14T20:12:04.418Z,100.00
2023-11-14T20:14:30.928Z,100.00
2023-11-14T20:16:57.529Z,100.00
2023-11-14T20:19:23.913Z,100.00
2023-11-14T20:21:50.286Z,100.00
2023-11-14T20:24:17.256Z,100.00
2023-11-14T20:26:43.975Z,100.00
2023-11-14T20:29:10.744Z,100.00
2023-11-14T20:31:37.475Z,100.00
2023-11-14T20:34:04.316Z,100.00
2023-11-14T20:36:31.826Z,100.00
2023-11-14T20:38:59.547Z,100.00
2023-11-14T20:41:26.615Z,100.00
2023-11-14T20:43:53.139Z,100.00
2023-11-14T20:46:19.599Z,100.00
2023-11-14T20:48:46.186Z,100.00
2023-11-14T20:51:21.752Z,100.00
2023-11-14T20:53:53.556Z,100.00
2023-11-14T20:56:24.513Z,100.00
2023-11-14T20:58:50.987Z,100.00
2023-11-14T21:01:17.458Z,100.00
2023-11-14T21:03:43.919Z,100.00
2023-11-14T21:06:10.502Z,100.00
2023-11-14T21:08:36.947Z,100.00
2023-11-14T21:11:03.650Z,100.00
2023-11-14T21:13:30.098Z,100.00
2023-11-14T21:15:56.511Z,100.00
2023-11-14T21:18:24.321Z,100.00
2023-11-14T21:20:50.935Z,100.00
2023-11-14T21:23:17.595Z,100.00
2023-11-14T21:25:44.298Z,100.00
2023-11-14T21:28:10.828Z,100.00
2023-11-14T21:30:37.497Z,100.00
2023-11-14T21:33:04.383Z,100.00
2023-11-14T21:35:31.005Z,100.00
2023-11-14T21:37:57.453Z,100.00
2023-11-14T21:40:24.578Z,100.00
2023-11-14T21:42:51.157Z,100.00
2023-11-14T21:45:18.490Z,100.00
2023-11-14T21:47:45.105Z,100.00
2023-11-14T21:50:12.746Z,100.00
2023-11-14T21:52:39.192Z,100.00
2023-11-14T21:55:06.196Z,100.00
2023-11-14T21:57:32.594Z,100.00
2023-11-14T21:59:59.505Z,100.00
2023-11-14T22:02:26.453Z,100.00
2023-11-14T22:04:53.713Z,100.00
2023-11-14T22:07:20.198Z,100.00
2023-11-14T22:09:46.600Z,100.00
2023-11-14T22:12:12.980Z,100.00
2023-11-14T22:14:39.712Z,100.00
2023-11-14T22:17:06.907Z,100.00
2023-11-14T22:19:33.293Z,100.00
2023-11-14T22:22:00.261Z,100.00
2023-11-14T22:24:27.507Z,100.00
2023-11-14T22:26:57.464Z,100.00
2023-11-14T22:29:24.382Z,100.00
2023-11-14T22:31:51.812Z,100.00
2023-11-14T22:34:18.610Z,100.00
2023-11-14T22:36:45.069Z,100.00
2023-11-14T22:39:11.461Z,100.00
2023-11-14T22:41:37.908Z,100.00
2023-11-14T22:44:04.589Z,100.00
2023-11-14T22:46:31.197Z,100.00
2023-11-14T22:48:57.625Z,100.00
2023-11-14T22:51:24.420Z,100.00
2023-11-14T22:53:51.113Z,100.00
2023-11-14T22:56:21.537Z,100.00
2023-11-14T22:58:48.006Z,100.00
2023-11-14T23:01:15.399Z,100.00
2023-11-14T23:03:47.762Z,100.00
2023-11-14T23:06:21.300Z,100.00
2023-11-14T23:08:50.024Z,100.00
2023-11-14T23:11:21.160Z,100.00
2023-11-14T23:13:47.752Z,100.00
2023-11-14T23:16:14.281Z,100.00
2023-11-14T23:18:40.701Z,100.00
2023-11-14T23:21:11.695Z,100.00
2023-11-14T23:23:38.735Z,100.00
2023-11-14T23:26:05.382Z,100.00
2023-11-14T23:28:31.912Z,100.00
2023-11-14T23:30:59.488Z,100.00
2023-11-14T23:33:26.013Z,100.00
2023-11-14T23:35:52.443Z,100.00
2023-11-14T23:38:18.938Z,100.00
2023-11-14T23:40:45.525Z,100.00
2023-11-14T23:43:12.598Z,100.00
2023-11-14T23:45:40.690Z,100.00
2023-11-14T23:48:08.367Z,100.00
2023-11-14T23:50:35.907Z,100.00
2023-11-14T23:53:02.749Z,100.00
2023-11-14T23:55:29.129Z,100.00
2023-11-14T23:57:55.658Z,100.00
